馬祖北竿航空站 - ATIS

METAR RCMT 130700Z 17008KT 9999 FEW015 31/24 Q1011 NOSIG RMK A2988(S)=

站台狀態:Offline
最後更新:2020-08-13 15:30:01